sensor_id;sensor_type;location;lat;lon;timestamp;pressure;altitude;pressure_sealevel;temperature;humidity
59686;BME280;45554;51.096;16.976;2022-07-25T00:01:58;100391.52;;;18.70;45.48
59686;BME280;45554;51.096;16.976;2022-07-25T00:04:28;100393.66;;;18.66;45.82
59686;BME280;45554;51.096;16.976;2022-07-25T00:06:57;100389.52;;;18.62;45.89
59686;BME280;45554;51.096;16.976;2022-07-25T00:09:25;100385.64;;;18.58;46.08
59686;BME280;45554;51.096;16.976;2022-07-25T00:11:54;100388.93;;;18.55;46.22
59686;BME280;45554;51.096;16.976;2022-07-25T00:14:22;100387.10;;;18.51;46.29
59686;BME280;45554;51.096;16.976;2022-07-25T00:16:51;100388.55;;;18.47;46.49
59686;BME280;45554;51.096;16.976;2022-07-25T00:19:20;100388.16;;;18.43;46.63
59686;BME280;45554;51.096;16.976;2022-07-25T00:21:48;100387.16;;;18.38;46.85
59686;BME280;45554;51.096;16.976;2022-07-25T00:24:17;100386.08;;;18.34;46.97
59686;BME280;45554;51.096;16.976;2022-07-25T00:26:45;100380.92;;;18.30;47.07
59686;BME280;45554;51.096;16.976;2022-07-25T00:29:13;100379.51;;;18.26;47.20
59686;BME280;45554;51.096;16.976;2022-07-25T00:31:41;100376.27;;;18.22;47.37
59686;BME280;45554;51.096;16.976;2022-07-25T00:34:09;100372.82;;;18.19;47.41
59686;BME280;45554;51.096;16.976;2022-07-25T00:36:37;100374.29;;;18.17;47.50
59686;BME280;45554;51.096;16.976;2022-07-25T00:39:05;100369.15;;;18.14;47.60
59686;BME280;45554;51.096;16.976;2022-07-25T00:41:34;100366.90;;;18.12;47.73
59686;BME280;45554;51.096;16.976;2022-07-25T00:44:02;100365.67;;;18.09;47.75
59686;BME280;45554;51.096;16.976;2022-07-25T00:46:31;100369.27;;;18.07;47.91
59686;BME280;45554;51.096;16.976;2022-07-25T00:48:59;100368.98;;;18.04;48.00
59686;BME280;45554;51.096;16.976;2022-07-25T00:51:28;100366.27;;;18.00;48.10
59686;BME280;45554;51.096;16.976;2022-07-25T00:53:56;100366.86;;;17.97;48.18
59686;BME280;45554;51.096;16.976;2022-07-25T00:56:25;100368.22;;;17.93;48.28
59686;BME280;45554;51.096;16.976;2022-07-25T00:58:53;100367.77;;;17.90;48.46
59686;BME280;45554;51.096;16.976;2022-07-25T01:01:22;100366.79;;;17.87;48.58
59686;BME280;45554;51.096;16.976;2022-07-25T01:03:51;100369.50;;;17.84;48.81
59686;BME280;45554;51.096;16.976;2022-07-25T01:06:20;100367.33;;;17.81;48.89
59686;BME280;45554;51.096;16.976;2022-07-25T01:08:52;100363.20;;;17.78;48.99
59686;BME280;45554;51.096;16.976;2022-07-25T01:11:21;100360.52;;;17.75;49.10
59686;BME280;45554;51.096;16.976;2022-07-25T01:13:50;100356.14;;;17.73;49.24
59686;BME280;45554;51.096;16.976;2022-07-25T01:16:19;100358.05;;;17.71;49.37
59686;BME280;45554;51.096;16.976;2022-07-25T01:18:47;100355.77;;;17.68;49.48
59686;BME280;45554;51.096;16.976;2022-07-25T01:21:15;100355.09;;;17.66;49.58
59686;BME280;45554;51.096;16.976;2022-07-25T01:23:43;100353.58;;;17.65;49.57
59686;BME280;45554;51.096;16.976;2022-07-25T01:26:11;100351.52;;;17.64;49.58
59686;BME280;45554;51.096;16.976;2022-07-25T01:28:39;100352.55;;;17.63;49.61
59686;BME280;45554;51.096;16.976;2022-07-25T01:31:08;100350.07;;;17.60;49.57
59686;BME280;45554;51.096;16.976;2022-07-25T01:33:40;100346.84;;;17.59;49.70
59686;BME280;45554;51.096;16.976;2022-07-25T01:36:08;100346.45;;;17.57;49.88
59686;BME280;45554;51.096;16.976;2022-07-25T01:38:36;100343.98;;;17.55;49.95
59686;BME280;45554;51.096;16.976;2022-07-25T01:41:05;100336.94;;;17.52;50.21
59686;BME280;45554;51.096;16.976;2022-07-25T01:43:35;100335.70;;;17.48;50.46
59686;BME280;45554;51.096;16.976;2022-07-25T01:46:04;100331.02;;;17.44;50.55
59686;BME280;45554;51.096;16.976;2022-07-25T01:48:32;100333.80;;;17.40;50.71
59686;BME280;45554;51.096;16.976;2022-07-25T01:51:01;100330.02;;;17.37;50.79
59686;BME280;45554;51.096;16.976;2022-07-25T01:53:29;100327.73;;;17.33;51.01
59686;BME280;45554;51.096;16.976;2022-07-25T01:55:58;100323.48;;;17.28;51.22
59686;BME280;45554;51.096;16.976;2022-07-25T01:58:31;100321.34;;;17.24;51.43
59686;BME280;45554;51.096;16.976;2022-07-25T02:00:59;100319.80;;;17.19;51.53
59686;BME280;45554;51.096;16.976;2022-07-25T02:03:27;100319.42;;;17.15;51.70
59686;BME280;45554;51.096;16.976;2022-07-25T02:06:04;100313.39;;;17.11;51.92
59686;BME280;45554;51.096;16.976;2022-07-25T02:08:33;100314.90;;;17.06;52.08
59686;BME280;45554;51.096;16.976;2022-07-25T02:11:03;100314.52;;;17.03;52.28
59686;BME280;45554;51.096;16.976;2022-07-25T02:13:31;100316.38;;;16.99;52.39
59686;BME280;45554;51.096;16.976;2022-07-25T02:15:59;100316.11;;;16.96;52.53
59686;BME280;45554;51.096;16.976;2022-07-25T02:18:27;100310.44;;;16.92;52.76
59686;BME280;45554;51.096;16.976;2022-07-25T02:20:56;100309.91;;;16.90;52.95
59686;BME280;45554;51.096;16.976;2022-07-25T02:23:26;100309.27;;;16.87;53.13
59686;BME280;45554;51.096;16.976;2022-07-25T02:25:54;100308.58;;;16.84;53.30
59686;BME280;45554;51.096;16.976;2022-07-25T02:28:23;100306.19;;;16.81;53.36
59686;BME280;45554;51.096;16.976;2022-07-25T02:30:51;100310.44;;;16.75;53.71
59686;BME280;45554;51.096;16.976;2022-07-25T02:33:20;100315.48;;;16.73;53.87
59686;BME280;45554;51.096;16.976;2022-07-25T02:35:48;100319.96;;;16.70;54.09
59686;BME280;45554;51.096;16.976;2022-07-25T02:38:17;100319.37;;;16.67;54.28
59686;BME280;45554;51.096;16.976;2022-07-25T02:40:49;100320.86;;;16.64;54.51
59686;BME280;45554;51.096;16.976;2022-07-25T02:43:18;100321.60;;;16.61;54.70
59686;BME280;45554;51.096;16.976;2022-07-25T02:45:49;100323.23;;;16.58;54.86
59686;BME280;45554;51.096;16.976;2022-07-25T02:48:17;100315.55;;;16.57;55.12
59686;BME280;45554;51.096;16.976;2022-07-25T02:50:46;100316.98;;;16.54;55.19
59686;BME280;45554;51.096;16.976;2022-07-25T02:53:14;100316.56;;;16.53;55.30
59686;BME280;45554;51.096;16.976;2022-07-25T02:56:02;100315.59;;;16.50;55.47
59686;BME280;45554;51.096;16.976;2022-07-25T02:58:32;100317.83;;;16.48;55.66
59686;BME280;45554;51.096;16.976;2022-07-25T03:01:00;100315.73;;;16.46;55.74
59686;BME280;45554;51.096;16.976;2022-07-25T03:03:28;100315.81;;;16.44;55.83
59686;BME280;45554;51.096;16.976;2022-07-25T03:05:58;100312.91;;;16.43;55.90
59686;BME280;45554;51.096;16.976;2022-07-25T03:08:26;100308.55;;;16.42;55.99
59686;BME280;45554;51.096;16.976;2022-07-25T03:10:54;100308.26;;;16.42;55.98
59686;BME280;45554;51.096;16.976;2022-07-25T03:13:23;100305.41;;;16.42;56.09
59686;BME280;45554;51.096;16.976;2022-07-25T03:15:51;100307.70;;;16.42;56.10
59686;BME280;45554;51.096;16.976;2022-07-25T03:18:22;100307.09;;;16.43;56.06
59686;BME280;45554;51.096;16.976;2022-07-25T03:20:50;100304.36;;;16.44;56.03
59686;BME280;45554;51.096;16.976;2022-07-25T03:23:18;100302.83;;;16.45;56.04
59686;BME280;45554;51.096;16.976;2022-07-25T03:25:46;100303.05;;;16.47;55.94
59686;BME280;45554;51.096;16.976;2022-07-25T03:28:16;100299.52;;;16.50;56.09
59686;BME280;45554;51.096;16.976;2022-07-25T03:30:46;100306.73;;;16.57;56.02
59686;BME280;45554;51.096;16.976;2022-07-25T03:33:13;100305.80;;;16.66;55.92
59686;BME280;45554;51.096;16.976;2022-07-25T03:35:41;100299.76;;;16.71;55.81
59686;BME280;45554;51.096;16.976;2022-07-25T03:38:09;100295.33;;;16.73;55.81
59686;BME280;45554;51.096;16.976;2022-07-25T03:40:38;100294.92;;;16.74;55.72
59686;BME280;45554;51.096;16.976;2022-07-25T03:43:07;100291.67;;;16.75;55.70
59686;BME280;45554;51.096;16.976;2022-07-25T03:45:35;100297.38;;;16.77;55.65
59686;BME280;45554;51.096;16.976;2022-07-25T03:48:04;100290.55;;;16.78;55.82
59686;BME280;45554;51.096;16.976;2022-07-25T03:50:32;100287.02;;;16.80;55.71
59686;BME280;45554;51.096;16.976;2022-07-25T03:53:00;100286.45;;;16.82;55.78
59686;BME280;45554;51.096;16.976;2022-07-25T03:55:28;100286.98;;;16.85;55.75
59686;BME280;45554;51.096;16.976;2022-07-25T03:57:56;100281.08;;;16.98;56.00
59686;BME280;45554;51.096;16.976;2022-07-25T04:00:24;100281.34;;;17.60;55.63
59686;BME280;45554;51.096;16.976;2022-07-25T04:02:53;100280.91;;;17.90;54.74
59686;BME280;45554;51.096;16.976;2022-07-25T04:05:21;100274.20;;;17.90;54.15
59686;BME280;45554;51.096;16.976;2022-07-25T04:07:49;100276.29;;;17.86;53.91
59686;BME280;45554;51.096;16.976;2022-07-25T04:10:17;100274.29;;;17.81;53.80
59686;BME280;45554;51.096;16.976;2022-07-25T04:12:46;100276.79;;;17.74;53.75
59686;BME280;45554;51.096;16.976;2022-07-25T04:15:14;100276.13;;;17.69;53.71
59686;BME280;45554;51.096;16.976;2022-07-25T04:17:43;100277.31;;;17.64;53.69
59686;BME280;45554;51.096;16.976;2022-07-25T04:20:12;100277.70;;;17.59;53.72
59686;BME280;45554;51.096;16.976;2022-07-25T04:22:40;100273.45;;;17.55;53.73
59686;BME280;45554;51.096;16.976;2022-07-25T04:25:14;100266.05;;;17.48;53.67
59686;BME280;45554;51.096;16.976;2022-07-25T04:27:42;100267.66;;;17.46;53.67
59686;BME280;45554;51.096;16.976;2022-07-25T04:30:11;100271.42;;;17.43;53.68
59686;BME280;45554;51.096;16.976;2022-07-25T04:32:52;100270.40;;;17.40;53.75
59686;BME280;45554;51.096;16.976;2022-07-25T04:35:20;100267.86;;;17.39;53.82
59686;BME280;45554;51.096;16.976;2022-07-25T04:37:48;100260.54;;;17.38;53.88
59686;BME280;45554;51.096;16.976;2022-07-25T04:40:17;100257.13;;;17.38;53.97
59686;BME280;45554;51.096;16.976;2022-07-25T04:42:45;100251.80;;;17.40;53.92
59686;BME280;45554;51.096;16.976;2022-07-25T04:45:12;100251.59;;;17.43;54.00
59686;BME280;45554;51.096;16.976;2022-07-25T04:47:45;100244.23;;;17.49;53.88
59686;BME280;45554;51.096;16.976;2022-07-25T04:50:14;100241.28;;;17.54;53.95
59686;BME280;45554;51.096;16.976;2022-07-25T04:52:42;100239.77;;;17.58;53.78
59686;BME280;45554;51.096;16.976;2022-07-25T04:55:11;100240.04;;;17.61;53.69
59686;BME280;45554;51.096;16.976;2022-07-25T04:57:40;100243.77;;;17.66;53.64
59686;BME280;45554;51.096;16.976;2022-07-25T05:00:10;100242.85;;;17.71;53.45
59686;BME280;45554;51.096;16.976;2022-07-25T05:02:44;100243.20;;;17.75;53.25
59686;BME280;45554;51.096;16.976;2022-07-25T05:05:12;100241.96;;;17.79;53.27
59686;BME280;45554;51.096;16.976;2022-07-25T05:07:49;100235.73;;;17.84;53.17
59686;BME280;45554;51.096;16.976;2022-07-25T05:10:18;100237.59;;;17.91;53.09
59686;BME280;45554;51.096;16.976;2022-07-25T05:12:46;100231.65;;;17.96;52.88
59686;BME280;45554;51.096;16.976;2022-07-25T05:15:16;100229.00;;;18.00;52.73
59686;BME280;45554;51.096;16.976;2022-07-25T05:17:46;100227.46;;;18.06;52.58
59686;BME280;45554;51.096;16.976;2022-07-25T05:20:15;100223.98;;;18.09;52.37
59686;BME280;45554;51.096;16.976;2022-07-25T05:22:43;100222.84;;;18.15;52.29
59686;BME280;45554;51.096;16.976;2022-07-25T05:25:12;100223.21;;;18.18;52.22
59686;BME280;45554;51.096;16.976;2022-07-25T05:27:40;100222.83;;;18.25;52.17
59686;BME280;45554;51.096;16.976;2022-07-25T05:30:09;100215.20;;;18.29;52.27
59686;BME280;45554;51.096;16.976;2022-07-25T05:32:38;100208.29;;;18.35;52.10
59686;BME280;45554;51.096;16.976;2022-07-25T05:35:07;100204.89;;;18.41;51.94
59686;BME280;45554;51.096;16.976;2022-07-25T05:37:37;100205.20;;;18.48;51.56
59686;BME280;45554;51.096;16.976;2022-07-25T05:40:05;100208.85;;;18.54;51.36
59686;BME280;45554;51.096;16.976;2022-07-25T05:42:34;100208.13;;;18.61;51.23
59686;BME280;45554;51.096;16.976;2022-07-25T05:45:02;100203.81;;;18.67;51.03
59686;BME280;45554;51.096;16.976;2022-07-25T05:47:30;100201.52;;;18.77;50.87
59686;BME280;45554;51.096;16.976;2022-07-25T05:49:59;100201.83;;;18.85;50.73
59686;BME280;45554;51.096;16.976;2022-07-25T05:52:28;100199.23;;;18.94;50.52
59686;BME280;45554;51.096;16.976;2022-07-25T05:54:56;100203.03;;;19.03;50.43
59686;BME280;45554;51.096;16.976;2022-07-25T05:57:24;100201.23;;;19.13;50.41
59686;BME280;45554;51.096;16.976;2022-07-25T05:59:52;100202.12;;;19.23;50.15
59686;BME280;45554;51.096;16.976;2022-07-25T06:02:23;100205.07;;;19.34;50.02
59686;BME280;45554;51.096;16.976;2022-07-25T06:04:51;100206.14;;;19.45;49.74
59686;BME280;45554;51.096;16.976;2022-07-25T06:07:20;100203.96;;;19.55;49.58
59686;BME280;45554;51.096;16.976;2022-07-25T06:09:49;100206.84;;;19.70;49.39
59686;BME280;45554;51.096;16.976;2022-07-25T06:12:17;100206.92;;;19.82;49.29
59686;BME280;45554;51.096;16.976;2022-07-25T06:14:51;100207.89;;;19.97;48.70
59686;BME280;45554;51.096;16.976;2022-07-25T06:17:22;100200.86;;;20.11;48.42
59686;BME280;45554;51.096;16.976;2022-07-25T06:20:01;100194.89;;;20.23;48.20
59686;BME280;45554;51.096;16.976;2022-07-25T06:22:30;100195.44;;;20.37;48.13
59686;BME280;45554;51.096;16.976;2022-07-25T06:25:01;100195.88;;;20.49;47.88
59686;BME280;45554;51.096;16.976;2022-07-25T06:27:30;100190.61;;;20.61;47.57
59686;BME280;45554;51.096;16.976;2022-07-25T06:29:59;100187.09;;;20.72;47.26
59686;BME280;45554;51.096;16.976;2022-07-25T06:32:36;100181.27;;;20.80;47.04
59686;BME280;45554;51.096;16.976;2022-07-25T06:35:04;100178.68;;;20.90;46.92
59686;BME280;45554;51.096;16.976;2022-07-25T06:37:36;100177.20;;;20.98;46.97
59686;BME280;45554;51.096;16.976;2022-07-25T06:40:04;100181.15;;;21.08;46.66
59686;BME280;45554;51.096;16.976;2022-07-25T06:42:36;100178.71;;;21.17;46.57
59686;BME280;45554;51.096;16.976;2022-07-25T06:45:05;100177.01;;;21.23;46.24
59686;BME280;45554;51.096;16.976;2022-07-25T06:47:35;100173.95;;;21.31;46.24
59686;BME280;45554;51.096;16.976;2022-07-25T06:50:06;100171.92;;;21.38;46.13
59686;BME280;45554;51.096;16.976;2022-07-25T06:52:39;100169.03;;;21.47;45.91
59686;BME280;45554;51.096;16.976;2022-07-25T06:55:07;100174.87;;;21.57;45.66
59686;BME280;45554;51.096;16.976;2022-07-25T06:57:36;100165.34;;;21.64;45.57
59686;BME280;45554;51.096;16.976;2022-07-25T07:00:05;100162.91;;;21.74;45.30
59686;BME280;45554;51.096;16.976;2022-07-25T07:02:59;100158.60;;;21.87;45.18
59686;BME280;45554;51.096;16.976;2022-07-25T07:05:31;100152.41;;;21.96;44.81
59686;BME280;45554;51.096;16.976;2022-07-25T07:08:02;100148.66;;;22.06;44.71
59686;BME280;45554;51.096;16.976;2022-07-25T07:10:35;100144.14;;;22.19;44.34
59686;BME280;45554;51.096;16.976;2022-07-25T07:13:32;100143.84;;;22.30;44.03
59686;BME280;45554;51.096;16.976;2022-07-25T07:16:06;100142.48;;;22.44;43.70
59686;BME280;45554;51.096;16.976;2022-07-25T07:18:35;100136.10;;;22.58;43.60
59686;BME280;45554;51.096;16.976;2022-07-25T07:21:05;100130.84;;;22.70;43.50
59686;BME280;45554;51.096;16.976;2022-07-25T07:23:37;100130.33;;;22.85;43.24
59686;BME280;45554;51.096;16.976;2022-07-25T07:26:07;100123.34;;;22.98;43.08
59686;BME280;45554;51.096;16.976;2022-07-25T07:28:35;100121.39;;;23.13;42.65
59686;BME280;45554;51.096;16.976;2022-07-25T07:31:03;100117.39;;;23.26;42.23
59686;BME280;45554;51.096;16.976;2022-07-25T07:33:47;100116.52;;;23.41;42.13
59686;BME280;45554;51.096;16.976;2022-07-25T07:36:15;100111.70;;;23.55;41.76
59686;BME280;45554;51.096;16.976;2022-07-25T07:38:43;100105.44;;;23.69;41.37
59686;BME280;45554;51.096;16.976;2022-07-25T07:41:12;100104.88;;;23.86;41.13
59686;BME280;45554;51.096;16.976;2022-07-25T07:43:44;100101.00;;;24.01;40.68
59686;BME280;45554;51.096;16.976;2022-07-25T07:46:12;100100.08;;;24.14;40.43
59686;BME280;45554;51.096;16.976;2022-07-25T07:48:46;100099.06;;;24.27;40.09
59686;BME280;45554;51.096;16.976;2022-07-25T07:51:17;100096.27;;;24.39;39.93
59686;BME280;45554;51.096;16.976;2022-07-25T07:53:45;100087.73;;;24.54;39.79
59686;BME280;45554;51.096;16.976;2022-07-25T07:56:34;100089.70;;;24.66;39.25
59686;BME280;45554;51.096;16.976;2022-07-25T07:59:04;100091.23;;;24.76;39.12
59686;BME280;45554;51.096;16.976;2022-07-25T08:01:33;100084.65;;;24.88;38.90
59686;BME280;45554;51.096;16.976;2022-07-25T08:04:02;100082.46;;;24.99;38.74
59686;BME280;45554;51.096;16.976;2022-07-25T08:06:30;100084.73;;;25.10;38.17
59686;BME280;45554;51.096;16.976;2022-07-25T08:08:58;100081.36;;;25.19;37.94
59686;BME280;45554;51.096;16.976;2022-07-25T08:11:27;100079.51;;;25.25;37.59
59686;BME280;45554;51.096;16.976;2022-07-25T08:13:56;100075.52;;;25.32;37.08
59686;BME280;45554;51.096;16.976;2022-07-25T08:16:25;100077.02;;;25.38;36.87
59686;BME280;45554;51.096;16.976;2022-07-25T08:18:53;100074.79;;;25.48;36.51
59686;BME280;45554;51.096;16.976;2022-07-25T08:21:21;100073.32;;;25.59;36.39
59686;BME280;45554;51.096;16.976;2022-07-25T08:23:49;100078.33;;;25.68;36.02
59686;BME280;45554;51.096;16.976;2022-07-25T08:26:18;100074.03;;;25.74;35.76
59686;BME280;45554;51.096;16.976;2022-07-25T08:28:45;100076.98;;;25.79;35.17
59686;BME280;45554;51.096;16.976;2022-07-25T08:31:19;100075.31;;;25.85;35.04
59686;BME280;45554;51.096;16.976;2022-07-25T08:33:47;100069.77;;;25.89;34.76
59686;BME280;45554;51.096;16.976;2022-07-25T08:36:17;100067.69;;;25.98;34.55
59686;BME280;45554;51.096;16.976;2022-07-25T08:38:45;100065.85;;;26.04;33.88
59686;BME280;45554;51.096;16.976;2022-07-25T08:41:13;100065.05;;;26.10;33.88
59686;BME280;45554;51.096;16.976;2022-07-25T08:43:42;100057.02;;;26.16;33.77
59686;BME280;45554;51.096;16.976;2022-07-25T08:46:14;100064.81;;;26.24;33.53
59686;BME280;45554;51.096;16.976;2022-07-25T08:48:45;100060.13;;;26.33;33.45
59686;BME280;45554;51.096;16.976;2022-07-25T08:51:14;100054.37;;;26.41;32.94
59686;BME280;45554;51.096;16.976;2022-07-25T08:53:42;100053.13;;;26.50;32.49
59686;BME280;45554;51.096;16.976;2022-07-25T08:56:15;100049.86;;;26.54;32.36
59686;BME280;45554;51.096;16.976;2022-07-25T08:58:53;100051.42;;;26.61;32.26
59686;BME280;45554;51.096;16.976;2022-07-25T09:01:28;100042.93;;;26.67;31.75
59686;BME280;45554;51.096;16.976;2022-07-25T09:04:04;100043.67;;;26.72;31.36
59686;BME280;45554;51.096;16.976;2022-07-25T09:06:35;100038.30;;;26.76;31.03
59686;BME280;45554;51.096;16.976;2022-07-25T09:09:07;100040.05;;;26.84;31.38
59686;BME280;45554;51.096;16.976;2022-07-25T09:11:37;100039.67;;;26.93;31.29
59686;BME280;45554;51.096;16.976;2022-07-25T09:14:08;100035.65;;;27.00;31.33
59686;BME280;45554;51.096;16.976;2022-07-25T09:16:43;100030.04;;;27.08;31.14
59686;BME280;45554;51.096;16.976;2022-07-25T09:19:14;100027.30;;;27.16;30.91
59686;BME280;45554;51.096;16.976;2022-07-25T09:21:44;100027.44;;;27.21;30.48
59686;BME280;45554;51.096;16.976;2022-07-25T09:24:14;100026.55;;;27.25;30.32
59686;BME280;45554;51.096;16.976;2022-07-25T09:26:48;100026.89;;;27.28;30.36
59686;BME280;45554;51.096;16.976;2022-07-25T09:29:27;100020.90;;;27.35;30.52
59686;BME280;45554;51.096;16.976;2022-07-25T09:31:59;100016.04;;;27.44;30.56
59686;BME280;45554;51.096;16.976;2022-07-25T09:34:33;100015.95;;;27.54;30.38
59686;BME280;45554;51.096;16.976;2022-07-25T09:37:07;100013.81;;;27.57;30.08
59686;BME280;45554;51.096;16.976;2022-07-25T09:42:24;99999.70;;;27.61;30.33
59686;BME280;45554;51.096;16.976;2022-07-25T09:47:35;99994.70;;;27.75;31.02
59686;BME280;45554;51.096;16.976;2022-07-25T09:50:05;99988.73;;;27.86;30.83
59686;BME280;45554;51.096;16.976;2022-07-25T09:52:33;99991.81;;;27.99;30.62
59686;BME280;45554;51.096;16.976;2022-07-25T09:55:04;99988.38;;;28.09;30.50
59686;BME280;45554;51.096;16.976;2022-07-25T09:57:33;99984.40;;;28.21;30.32
59686;BME280;45554;51.096;16.976;2022-07-25T10:00:05;99984.68;;;28.30;30.13
59686;BME280;45554;51.096;16.976;2022-07-25T10:05:48;99977.94;;;28.39;29.30
59686;BME280;45554;51.096;16.976;2022-07-25T10:08:18;99976.19;;;28.43;29.31
59686;BME280;45554;51.096;16.976;2022-07-25T10:10:48;99971.52;;;28.44;29.03
59686;BME280;45554;51.096;16.976;2022-07-25T10:13:29;99976.34;;;28.50;28.75
59686;BME280;45554;51.096;16.976;2022-07-25T10:15:57;99970.69;;;28.52;28.43
59686;BME280;45554;51.096;16.976;2022-07-25T10:18:27;99972.28;;;28.60;28.45
59686;BME280;45554;51.096;16.976;2022-07-25T10:21:11;99964.75;;;28.64;28.23
59686;BME280;45554;51.096;16.976;2022-07-25T10:24:05;99958.35;;;28.71;28.23
59686;BME280;45554;51.096;16.976;2022-07-25T10:26:36;99957.99;;;28.85;27.87
59686;BME280;45554;51.096;16.976;2022-07-25T10:29:09;99952.48;;;28.94;27.81
59686;BME280;45554;51.096;16.976;2022-07-25T10:31:40;99945.71;;;29.06;28.06
59686;BME280;45554;51.096;16.976;2022-07-25T10:34:27;99940.98;;;29.21;28.19
59686;BME280;45554;51.096;16.976;2022-07-25T10:36:56;99937.92;;;29.36;27.78
59686;BME280;45554;51.096;16.976;2022-07-25T10:39:37;99941.71;;;29.40;26.91
59686;BME280;45554;51.096;16.976;2022-07-25T10:42:05;99938.31;;;29.42;26.82
59686;BME280;45554;51.096;16.976;2022-07-25T10:44:44;99935.38;;;29.50;26.92
59686;BME280;45554;51.096;16.976;2022-07-25T10:47:15;99927.46;;;29.56;26.91
59686;BME280;45554;51.096;16.976;2022-07-25T10:49:45;99923.98;;;29.62;26.80
59686;BME280;45554;51.096;16.976;2022-07-25T10:52:40;99924.06;;;29.71;26.30
59686;BME280;45554;51.096;16.976;2022-07-25T10:55:23;99919.52;;;29.71;25.97
59686;BME280;45554;51.096;16.976;2022-07-25T10:58:00;99916.79;;;29.74;26.20
59686;BME280;45554;51.096;16.976;2022-07-25T11:00:44;99918.54;;;29.84;25.98
59686;BME280;45554;51.096;16.976;2022-07-25T11:03:12;99911.66;;;29.89;26.11
59686;BME280;45554;51.096;16.976;2022-07-25T11:05:46;99904.34;;;29.92;25.95
59686;BME280;45554;51.096;16.976;2022-07-25T11:08:15;99895.81;;;29.98;26.05
59686;BME280;45554;51.096;16.976;2022-07-25T11:10:50;99896.02;;;30.06;26.20
59686;BME280;45554;51.096;16.976;2022-07-25T11:13:20;99896.05;;;30.16;25.81
59686;BME280;45554;51.096;16.976;2022-07-25T11:15:48;99894.04;;;30.18;25.37
59686;BME280;45554;51.096;16.976;2022-07-25T11:18:29;99895.20;;;30.17;25.76
59686;BME280;45554;51.096;16.976;2022-07-25T11:20:59;99884.95;;;30.20;25.29
59686;BME280;45554;51.096;16.976;2022-07-25T11:23:33;99883.16;;;30.20;25.09
59686;BME280;45554;51.096;16.976;2022-07-25T11:26:09;99880.08;;;30.20;25.12
59686;BME280;45554;51.096;16.976;2022-07-25T11:28:44;99874.97;;;30.23;25.07
59686;BME280;45554;51.096;16.976;2022-07-25T11:31:13;99870.45;;;30.31;25.18
59686;BME280;45554;51.096;16.976;2022-07-25T11:33:47;99866.66;;;30.42;25.06
59686;BME280;45554;51.096;16.976;2022-07-25T11:36:16;99855.98;;;30.53;25.01
59686;BME280;45554;51.096;16.976;2022-07-25T11:38:48;99851.68;;;30.66;24.56
59686;BME280;45554;51.096;16.976;2022-07-25T11:41:30;99851.23;;;30.79;24.80
59686;BME280;45554;51.096;16.976;2022-07-25T11:43:58;99849.67;;;30.96;24.51
59686;BME280;45554;51.096;16.976;2022-07-25T11:46:26;99842.63;;;31.09;24.42
59686;BME280;45554;51.096;16.976;2022-07-25T11:49:03;99842.79;;;31.25;24.33
59686;BME280;45554;51.096;16.976;2022-07-25T11:51:37;99835.77;;;31.49;24.34
59686;BME280;45554;51.096;16.976;2022-07-25T11:54:10;99834.29;;;31.70;24.04
59686;BME280;45554;51.096;16.976;2022-07-25T11:56:40;99830.95;;;31.85;23.71
59686;BME280;45554;51.096;16.976;2022-07-25T11:59:10;99828.00;;;32.02;23.40
59686;BME280;45554;51.096;16.976;2022-07-25T12:01:41;99823.35;;;32.21;23.33
59686;BME280;45554;51.096;16.976;2022-07-25T12:04:14;99823.61;;;32.38;22.98
59686;BME280;45554;51.096;16.976;2022-07-25T12:06:47;99815.89;;;32.55;23.16
59686;BME280;45554;51.096;16.976;2022-07-25T12:09:18;99812.71;;;32.81;22.95
59686;BME280;45554;51.096;16.976;2022-07-25T12:11:50;99796.52;;;32.98;22.17
59686;BME280;45554;51.096;16.976;2022-07-25T12:14:43;99798.41;;;33.22;22.05
59686;BME280;45554;51.096;16.976;2022-07-25T12:17:11;99795.79;;;33.42;22.01
59686;BME280;45554;51.096;16.976;2022-07-25T12:19:39;99785.58;;;33.65;22.15
59686;BME280;45554;51.096;16.976;2022-07-25T12:22:07;99782.36;;;33.90;22.22
59686;BME280;45554;51.096;16.976;2022-07-25T12:24:35;99776.17;;;34.17;21.90
59686;BME280;45554;51.096;16.976;2022-07-25T12:27:03;99770.11;;;34.40;21.74
59686;BME280;45554;51.096;16.976;2022-07-25T12:29:32;99771.04;;;34.51;20.92
59686;BME280;45554;51.096;16.976;2022-07-25T12:32:00;99767.17;;;34.59;21.06
59686;BME280;45554;51.096;16.976;2022-07-25T12:34:27;99759.28;;;34.81;21.02
59686;BME280;45554;51.096;16.976;2022-07-25T12:36:56;99753.07;;;35.09;20.98
59686;BME280;45554;51.096;16.976;2022-07-25T12:39:24;99754.16;;;35.37;20.61
59686;BME280;45554;51.096;16.976;2022-07-25T12:41:59;99754.77;;;35.61;20.39
59686;BME280;45554;51.096;16.976;2022-07-25T12:44:27;99755.66;;;35.88;20.49
59686;BME280;45554;51.096;16.976;2022-07-25T12:46:56;99754.15;;;36.09;19.94
59686;BME280;45554;51.096;16.976;2022-07-25T12:49:23;99752.36;;;36.21;19.99
59686;BME280;45554;51.096;16.976;2022-07-25T12:51:54;99746.16;;;36.41;19.40
59686;BME280;45554;51.096;16.976;2022-07-25T12:54:25;99748.05;;;36.57;19.42
59686;BME280;45554;51.096;16.976;2022-07-25T12:56:53;99747.41;;;36.66;18.92
59686;BME280;45554;51.096;16.976;2022-07-25T12:59:21;99738.83;;;36.70;18.68
59686;BME280;45554;51.096;16.976;2022-07-25T13:01:50;99735.82;;;36.80;19.18
59686;BME280;45554;51.096;16.976;2022-07-25T13:04:18;99721.73;;;36.90;19.28
59686;BME280;45554;51.096;16.976;2022-07-25T13:06:46;99716.91;;;37.02;19.02
59686;BME280;45554;51.096;16.976;2022-07-25T13:09:16;99713.31;;;37.28;19.06